Time;durP1;ratioP1;P1;durP2;ratioP2;P2;SDS_P1;SDS_P2;PMS_P1;PMS_P2;Temp;Humidity;BMP_temperature;BMP_pressure;BME280_temperature;BME280_humidity;BME280_pressure;Samples;Min_cycle;Max_cycle;Signal;HPM_P1;HPM_P2
2022/08/03 00:01:39;;;;;;;6.97;2.10;;;25.00;90.10;;;;;;5012246;28;20034;-86
2022/08/03 00:04:06;;;;;;;5.47;2.35;;;25.00;90.20;;;;;;5012404;28;20475;-86
2022/08/03 00:06:32;;;;;;;7.72;2.33;;;25.00;90.30;;;;;;5012218;28;20022;-84
2022/08/03 00:08:58;;;;;;;6.68;1.98;;;24.90;90.30;;;;;;5012064;28;20037;-83
2022/08/03 00:11:24;;;;;;;8.80;2.00;;;24.90;90.40;;;;;;5012097;28;20018;-84
2022/08/03 00:13:49;;;;;;;6.38;1.90;;;24.90;90.40;;;;;;5009522;28;20030;-84
2022/08/03 00:16:15;;;;;;;7.05;2.35;;;24.80;90.30;;;;;;5011908;28;20030;-84
2022/08/03 00:18:41;;;;;;;6.45;2.40;;;24.80;90.40;;;;;;5012234;28;20025;-87
2022/08/03 00:21:07;;;;;;;9.27;2.45;;;24.80;90.50;;;;;;5022716;28;20547;-87
2022/08/03 00:23:34;;;;;;;8.52;2.08;;;24.70;90.50;;;;;;5001960;28;20038;-87
2022/08/03 00:25:59;;;;;;;5.07;2.22;;;24.70;90.60;;;;;;5028018;28;20025;-88
2022/08/03 00:28:25;;;;;;;9.70;2.60;;;24.60;90.70;;;;;;5032371;28;20025;-88
2022/08/03 00:30:51;;;;;;;7.53;1.90;;;24.60;90.70;;;;;;5029411;28;20064;-87
2022/08/03 00:33:17;;;;;;;9.20;2.38;;;24.60;90.70;;;;;;5016043;28;20029;-88
2022/08/03 00:35:43;;;;;;;8.75;2.67;;;24.50;90.70;;;;;;5015910;28;20017;-87
2022/08/03 00:38:08;;;;;;;7.82;2.28;;;24.50;90.80;;;;;;5016068;28;20060;-88
2022/08/03 00:40:34;;;;;;;7.65;1.90;;;24.40;90.90;;;;;;5025196;28;20111;-84
2022/08/03 00:43:05;;;;;;;7.82;1.83;;;24.40;91.00;;;;;;5048398;28;20492;-84
2022/08/03 00:45:37;;;;;;;6.35;1.88;;;24.30;91.20;;;;;;5031833;28;20083;-84
2022/08/03 00:48:04;;;;;;;9.23;2.08;;;24.30;91.30;;;;;;5001228;28;20018;-84
2022/08/03 00:50:33;;;;;;;7.90;2.60;;;24.30;91.40;;;;;;5015206;28;20050;-84
2022/08/03 00:53:00;;;;;;;7.45;2.05;;;24.20;91.60;;;;;;5031511;28;20022;-84
2022/08/03 00:55:26;;;;;;;6.63;1.88;;;24.20;91.70;;;;;;5015093;28;20057;-85
2022/08/03 00:57:53;;;;;;;6.07;1.90;;;24.10;91.80;;;;;;5012265;28;20034;-84
2022/08/03 01:00:24;;;;;;;7.95;2.10;;;24.10;91.90;;;;;;5034831;28;20124;-84
2022/08/03 01:02:50;;;;;;;8.05;2.20;;;24.10;92.10;;;;;;5016138;28;20026;-84
2022/08/03 01:05:16;;;;;;;7.47;2.22;;;24.10;92.20;;;;;;5031383;28;20064;-84
2022/08/03 01:08:16;;;;;;;6.70;2.03;;;24.00;92.30;;;;;;4998473;28;20058;-84
2022/08/03 01:10:56;;;;;;;4.90;1.95;;;24.00;92.50;;;;;;5014825;28;20117;-84
2022/08/03 01:13:30;;;;;;;11.80;2.40;;;23.90;92.50;;;;;;5001023;28;20022;-84
2022/08/03 01:16:10;;;;;;;7.25;1.92;;;23.90;92.60;;;;;;5020671;28;20076;-85
2022/08/03 01:19:13;;;;;;;5.68;1.50;;;23.90;92.70;;;;;;5030977;28;20489;-85
2022/08/03 01:22:09;;;;;;;6.28;2.10;;;23.80;92.80;;;;;;5030571;28;20074;-86
2022/08/03 01:25:00;;;;;;;9.95;2.40;;;23.80;92.80;;;;;;5014901;28;20079;-86
2022/08/03 01:28:05;;;;;;;5.47;2.00;;;23.70;93.00;;;;;;5014412;28;20038;-86
2022/08/03 01:30:33;;;;;;;8.95;2.20;;;23.80;93.10;;;;;;5014506;28;20091;-86
2022/08/03 01:33:14;;;;;;;8.52;2.72;;;23.70;93.20;;;;;;5031104;28;20018;-83
2022/08/03 01:35:49;;;;;;;8.75;2.88;;;23.70;93.30;;;;;;5030362;28;20028;-84
2022/08/03 01:38:28;;;;;;;5.47;1.90;;;23.70;93.40;;;;;;5030265;28;20029;-85
2022/08/03 01:40:55;;;;;;;7.00;2.30;;;23.60;93.40;;;;;;5015649;28;20025;-86
2022/08/03 01:43:29;;;;;;;7.72;2.25;;;23.60;93.40;;;;;;5047192;28;20022;-85
2022/08/03 01:45:56;;;;;;;5.97;2.20;;;23.60;93.40;;;;;;5014532;28;20033;-83
2022/08/03 01:48:23;;;;;;;6.55;2.30;;;23.60;93.80;;;;;;5014150;28;20047;-85
2022/08/03 01:50:50;;;;;;;7.85;2.25;;;23.50;93.60;;;;;;5014369;28;20105;-86
2022/08/03 01:53:17;;;;;;;8.35;2.45;;;23.50;93.70;;;;;;5030542;28;20026;-85
2022/08/03 01:55:51;;;;;;;9.70;2.33;;;23.50;93.70;;;;;;5014196;28;20026;-85
2022/08/03 01:58:19;;;;;;;7.97;2.20;;;23.50;93.90;;;;;;5012679;28;20471;-86
2022/08/03 02:00:45;;;;;;;6.50;2.17;;;23.40;94.00;;;;;;5030722;28;20112;-85
2022/08/03 02:03:14;;;;;;;7.22;2.20;;;23.40;94.10;;;;;;5014073;28;20066;-84
2022/08/03 02:05:41;;;;;;;8.05;2.40;;;23.40;94.20;;;;;;5013912;28;20029;-84
2022/08/03 02:08:11;;;;;;;8.30;2.15;;;23.40;94.30;;;;;;4999872;28;20031;-84
2022/08/03 02:10:40;;;;;;;7.05;2.42;;;23.40;94.40;;;;;;5011145;28;20410;-84
2022/08/03 02:13:09;;;;;;;8.30;2.20;;;23.30;94.50;;;;;;5014666;28;20022;-84
2022/08/03 02:15:40;;;;;;;5.55;2.05;;;23.30;94.50;;;;;;5013561;28;20426;-84
2022/08/03 02:18:07;;;;;;;;;;;23.20;94.50;;;;;;5014011;28;20063;-84
2022/08/03 02:20:36;;;;;;;7.25;2.00;;;23.20;94.60;;;;;;5013571;28;19995;-84
2022/08/03 02:23:02;;;;;;;6.40;2.03;;;23.10;94.60;;;;;;5014515;28;20487;-84
2022/08/03 02:25:29;;;;;;;6.22;2.38;;;23.10;94.70;;;;;;5029946;28;20029;-84
2022/08/03 02:28:00;;;;;;;4.68;2.10;;;23.10;94.90;;;;;;5029873;28;20073;-84
2022/08/03 02:30:38;;;;;;;15.30;2.85;;;23.00;95.00;;;;;;5013334;28;20425;-84
2022/08/03 02:33:07;;;;;;;4.90;2.10;;;23.00;95.10;;;;;;5029974;28;20387;-84
2022/08/03 02:35:35;;;;;;;5.68;2.08;;;23.00;95.20;;;;;;4999828;28;20184;-84
2022/08/03 02:38:03;;;;;;;7.50;2.28;;;23.00;95.30;;;;;;5013192;28;20034;-84
2022/08/03 02:40:31;;;;;;;8.73;2.00;;;22.90;95.30;;;;;;5013225;28;20025;-84
2022/08/03 02:43:04;;;;;;;11.75;2.97;;;22.90;95.40;;;;;;5013004;28;20411;-83
2022/08/03 02:45:34;;;;;;;8.32;2.95;;;22.90;95.40;;;;;;5014435;28;20022;-84
2022/08/03 02:48:01;;;;;;;;;;;22.80;95.40;;;;;;5014287;28;20026;-84
2022/08/03 02:50:29;;;;;;;5.32;2.67;;;22.80;95.60;;;;;;5029927;28;19967;-84
2022/08/03 02:53:29;;;;;;;6.97;2.10;;;22.80;95.50;;;;;;5012986;28;20030;-84
2022/08/03 02:55:56;;;;;;;8.98;2.42;;;22.80;95.70;;;;;;5013410;28;20025;-84
2022/08/03 02:58:23;;;;;;;4.70;2.13;;;22.70;95.70;;;;;;5014172;28;20514;-84
2022/08/03 03:00:50;;;;;;;7.70;2.22;;;22.70;95.80;;;;;;5012937;28;20054;-84
2022/08/03 03:03:17;;;;;;;4.15;1.92;;;22.70;95.90;;;;;;5012724;28;20026;-84
2022/08/03 03:05:44;;;;;;;7.47;2.30;;;22.70;96.00;;;;;;5012982;28;20060;-88
2022/08/03 03:08:13;;;;;;;5.15;2.10;;;22.60;96.30;;;;;;5012968;28;20026;-83
2022/08/03 03:10:39;;;;;;;8.32;2.35;;;22.60;96.10;;;;;;5013307;28;20521;-84
2022/08/03 03:13:07;;;;;;;6.53;2.38;;;22.60;96.20;;;;;;5015609;28;20030;-84
2022/08/03 03:15:36;;;;;;;6.47;2.35;;;22.50;96.20;;;;;;5029787;28;20006;-87
2022/08/03 03:18:02;;;;;;;7.85;2.13;;;22.50;96.30;;;;;;5009915;28;20069;-87
2022/08/03 03:20:29;;;;;;;7.55;2.33;;;22.50;96.40;;;;;;5029052;28;20475;-87
2022/08/03 03:22:55;;;;;;;6.45;1.92;;;22.50;96.50;;;;;;5013319;28;20518;-87
2022/08/03 03:25:22;;;;;;;4.60;1.80;;;22.40;96.50;;;;;;5013731;28;20069;-87
2022/08/03 03:27:48;;;;;;;8.77;2.25;;;22.40;96.60;;;;;;5016151;28;20026;-87
2022/08/03 03:30:14;;;;;;;7.95;2.10;;;22.40;96.60;;;;;;5010541;28;20029;-87
2022/08/03 03:32:40;;;;;;;5.55;2.05;;;22.40;96.70;;;;;;5012333;28;20037;-86
2022/08/03 03:35:07;;;;;;;5.72;2.15;;;22.40;96.80;;;;;;5024255;28;20487;-87
2022/08/03 03:37:33;;;;;;;5.60;1.88;;;22.40;96.80;;;;;;5017638;28;20029;-88
2022/08/03 03:39:59;;;;;;;4.28;1.60;;;22.40;96.90;;;;;;5013349;28;20034;-84
2022/08/03 03:42:25;;;;;;;2.83;1.30;;;22.30;96.90;;;;;;4995796;28;20030;-83
2022/08/03 03:44:50;;;;;;;5.20;1.50;;;22.30;96.90;;;;;;5012729;28;20033;-83
2022/08/03 03:47:16;;;;;;;5.78;1.55;;;22.30;96.80;;;;;;4982156;28;20042;-83
2022/08/03 03:49:42;;;;;;;4.85;1.60;;;22.20;96.80;;;;;;5012261;28;20042;-83
2022/08/03 03:52:09;;;;;;;3.95;2.00;;;22.20;96.90;;;;;;5012349;28;20096;-83
2022/08/03 03:54:42;;;;;;;6.60;1.77;;;22.10;96.90;;;;;;5012317;28;20034;-83
2022/08/03 03:57:27;;;;;;;3.65;1.70;;;22.10;97.00;;;;;;5012548;28;20141;-84
2022/08/03 03:59:52;;;;;;;6.03;1.98;;;22.10;97.30;;;;;;5013995;28;20023;-83
2022/08/03 04:02:18;;;;;;;5.25;2.30;;;22.10;97.30;;;;;;5025970;28;20537;-86
2022/08/03 04:10:58;;;;;;;8.45;3.13;;;22.00;97.80;;;;;;5017763;28;20490;-86
2022/08/03 04:13:36;;;;;;;5.32;2.63;;;22.00;97.90;;;;;;4999525;28;20026;-85
2022/08/03 04:16:04;;;;;;;11.38;3.53;;;22.00;98.10;;;;;;5026713;28;20029;-86
2022/08/03 04:18:33;;;;;;;7.68;2.53;;;22.00;98.30;;;;;;5048950;28;20029;-86
2022/08/03 04:21:03;;;;;;;8.27;3.33;;;21.90;98.40;;;;;;5015795;28;20029;-86
2022/08/03 04:23:33;;;;;;;8.27;3.17;;;22.00;98.60;;;;;;5015852;28;20036;-85
2022/08/03 04:26:01;;;;;;;12.00;3.45;;;22.00;98.80;;;;;;5015970;28;20113;-86
2022/08/03 04:28:28;;;;;;;9.65;3.65;;;21.90;98.90;;;;;;5032082;28;20026;-85
2022/08/03 04:30:56;;;;;;;9.15;4.15;;;21.90;99.50;;;;;;5017109;28;20371;-85
2022/08/03 04:33:25;;;;;;;13.10;3.78;;;21.90;99.50;;;;;;5032981;28;20037;-86
2022/08/03 04:35:56;;;;;;;10.73;3.95;;;21.90;99.60;;;;;;5030433;28;20029;-86
2022/08/03 04:38:24;;;;;;;8.27;3.85;;;21.90;99.80;;;;;;5017124;28;20057;-86
2022/08/03 04:40:51;;;;;;;12.45;3.97;;;21.80;99.80;;;;;;5010899;28;20026;-84
2022/08/03 04:43:18;;;;;;;8.55;3.58;;;21.80;99.90;;;;;;5046738;28;20157;-84
2022/08/03 04:45:47;;;;;;;9.48;3.70;;;21.80;99.90;;;;;;5005051;28;20034;-83
2022/08/03 04:48:14;;;;;;;10.00;3.92;;;21.80;99.90;;;;;;5046647;28;20041;-84
2022/08/03 04:50:41;;;;;;;8.60;4.28;;;21.80;99.90;;;;;;5016472;28;20152;-84
2022/08/03 04:53:06;;;;;;;9.82;4.05;;;21.80;99.90;;;;;;5031837;28;20533;-84
2022/08/03 04:55:33;;;;;;;10.38;4.68;;;21.80;99.90;;;;;;5027254;28;20112;-83
2022/08/03 04:58:00;;;;;;;10.10;4.40;;;21.90;99.90;;;;;;5015454;28;20029;-84
2022/08/03 05:00:26;;;;;;;9.45;4.60;;;21.80;99.90;;;;;;5015107;28;20026;-83
2022/08/03 05:02:53;;;;;;;12.45;4.43;;;21.80;99.90;;;;;;5023515;28;20033;-83
2022/08/03 05:05:19;;;;;;;9.80;4.28;;;21.80;99.90;;;;;;5023229;28;20033;-83
2022/08/03 05:07:44;;;;;;;13.02;4.55;;;21.80;99.90;;;;;;4997853;28;20026;-84
2022/08/03 05:10:11;;;;;;;11.15;4.68;;;21.80;99.90;;;;;;5029432;28;20430;-83
2022/08/03 05:12:38;;;;;;;7.53;4.15;;;21.80;99.90;;;;;;5014208;28;20083;-84
2022/08/03 05:15:04;;;;;;;10.20;4.20;;;21.80;99.90;;;;;;5014696;28;20022;-84
2022/08/03 05:17:30;;;;;;;11.20;4.88;;;21.80;99.90;;;;;;5024888;28;20026;-83
2022/08/03 05:19:56;;;;;;;16.10;4.50;;;21.80;99.90;;;;;;5031151;28;20018;-84
2022/08/03 05:22:22;;;;;;;10.63;3.70;;;21.80;99.90;;;;;;4998307;28;20423;-83
2022/08/03 05:24:48;;;;;;;9.25;4.63;;;21.80;99.90;;;;;;5014574;28;20148;-84
2022/08/03 05:27:18;;;;;;;9.65;4.35;;;21.80;99.90;;;;;;5005039;28;20464;-84
2022/08/03 05:29:48;;;;;;;10.77;4.30;;;21.80;99.90;;;;;;5023621;28;20022;-84
2022/08/03 05:32:15;;;;;;;11.18;4.78;;;21.90;99.90;;;;;;5020100;28;20021;-84
2022/08/03 05:34:41;;;;;;;10.50;4.47;;;21.80;99.90;;;;;;5047417;28;20026;-83
2022/08/03 05:37:07;;;;;;;9.60;4.80;;;21.80;99.90;;;;;;5047646;28;20052;-83
2022/08/03 05:39:33;;;;;;;8.18;4.25;;;21.80;99.90;;;;;;5030896;28;20030;-83
2022/08/03 05:41:59;;;;;;;12.43;4.80;;;21.80;99.90;;;;;;5031737;28;20040;-83
2022/08/03 05:44:25;;;;;;;12.45;5.15;;;21.90;99.90;;;;;;5012499;28;20026;-83
2022/08/03 05:46:51;;;;;;;8.10;4.30;;;21.80;99.90;;;;;;5010816;28;20038;-83
2022/08/03 05:49:18;;;;;;;9.05;4.47;;;21.80;99.90;;;;;;5019803;28;20475;-84
2022/08/03 05:51:44;;;;;;;10.02;4.53;;;21.90;99.90;;;;;;5013954;28;20543;-83
2022/08/03 05:54:10;;;;;;;11.68;4.88;;;21.90;99.90;;;;;;5030451;28;20050;-83
2022/08/03 05:56:35;;;;;;;8.73;4.25;;;21.90;99.90;;;;;;5013251;28;20103;-83
2022/08/03 05:59:01;;;;;;;10.98;4.32;;;21.90;99.90;;;;;;5014109;28;20092;-83
2022/08/03 06:01:27;;;;;;;10.57;4.47;;;21.90;99.90;;;;;;4981924;28;20041;-83
2022/08/03 06:03:53;;;;;;;11.00;4.63;;;22.00;99.90;;;;;;5027295;28;20117;-83
2022/08/03 06:06:18;;;;;;;9.90;4.00;;;22.00;99.90;;;;;;5030537;28;20028;-83
2022/08/03 06:08:45;;;;;;;10.95;4.18;;;21.90;99.90;;;;;;4996961;28;20510;-83
2022/08/03 06:11:11;;;;;;;9.18;4.18;;;22.00;99.90;;;;;;5033357;28;20026;-84
2022/08/03 06:13:37;;;;;;;10.27;3.92;;;22.00;99.90;;;;;;5030288;28;20514;-82
2022/08/03 06:16:03;;;;;;;9.70;3.92;;;22.00;99.90;;;;;;5021285;28;20026;-82
2022/08/03 06:18:29;;;;;;;8.35;4.30;;;22.00;99.90;;;;;;5018800;28;20041;-82
2022/08/03 06:20:55;;;;;;;12.18;3.75;;;22.00;99.90;;;;;;5013159;28;20042;-82
2022/08/03 06:23:21;;;;;;;12.82;4.20;;;22.10;99.90;;;;;;5012091;28;20034;-83
2022/08/03 06:25:47;;;;;;;7.53;3.95;;;22.20;99.90;;;;;;5013444;28;20030;-83
2022/08/03 06:28:13;;;;;;;11.68;4.10;;;22.20;99.90;;;;;;5011360;28;20543;-83
2022/08/03 06:30:39;;;;;;;11.25;3.90;;;22.20;99.90;;;;;;5020497;28;20030;-83
2022/08/03 06:33:05;;;;;;;8.60;4.22;;;22.30;99.90;;;;;;5029811;28;20477;-82
2022/08/03 06:35:30;;;;;;;12.60;3.63;;;22.30;99.90;;;;;;4980842;28;20029;-82
2022/08/03 06:37:56;;;;;;;13.52;4.10;;;22.30;99.90;;;;;;5013599;28;20119;-83
2022/08/03 06:40:30;;;;;;;14.75;3.83;;;22.30;99.90;;;;;;5013499;28;20033;-83
2022/08/03 06:42:57;;;;;;;8.40;3.38;;;22.30;99.90;;;;;;5028794;28;20533;-83
2022/08/03 06:45:24;;;;;;;14.07;3.78;;;22.30;99.90;;;;;;5013070;28;20029;-83
2022/08/03 06:48:19;;;;;;;14.25;4.03;;;22.40;99.90;;;;;;5012935;28;20022;-83
2022/08/03 06:50:45;;;;;;;12.90;3.78;;;22.50;99.90;;;;;;4999716;28;20542;-82
2022/08/03 06:53:10;;;;;;;11.93;3.72;;;22.50;99.90;;;;;;5010719;28;20101;-82
2022/08/03 06:55:36;;;;;;;11.07;3.63;;;22.60;99.90;;;;;;5029298;28;20018;-82
2022/08/03 06:58:02;;;;;;;18.17;4.15;;;22.60;99.90;;;;;;4996501;28;20025;-83
2022/08/03 07:00:29;;;;;;;17.48;3.75;;;22.70;99.90;;;;;;5009614;28;20038;-83
2022/08/03 07:02:55;;;;;;;13.98;3.42;;;22.70;99.90;;;;;;5001678;28;20030;-83
2022/08/03 07:05:21;;;;;;;13.27;3.47;;;22.80;99.90;;;;;;4994979;28;20030;-82
2022/08/03 07:07:48;;;;;;;9.15;3.20;;;22.80;99.90;;;;;;5012558;28;20072;-82
2022/08/03 07:10:13;;;;;;;11.05;3.33;;;22.90;99.90;;;;;;5012663;28;20056;-83
2022/08/03 07:12:40;;;;;;;10.13;2.95;;;23.00;99.90;;;;;;4996443;28;20026;-82
2022/08/03 07:15:06;;;;;;;10.05;2.53;;;23.00;99.90;;;;;;5013009;28;20112;-83
2022/08/03 07:17:34;;;;;;;9.55;3.22;;;23.10;99.90;;;;;;4983741;28;20026;-82
2022/08/03 07:20:02;;;;;;;8.45;2.80;;;23.20;99.90;;;;;;5026186;28;20022;-83
2022/08/03 07:22:28;;;;;;;9.73;2.90;;;23.20;99.90;;;;;;5027792;28;20483;-83
2022/08/03 07:24:53;;;;;;;10.82;2.95;;;23.30;99.90;;;;;;5043555;28;20022;-83
2022/08/03 07:27:19;;;;;;;14.52;3.72;;;23.40;99.90;;;;;;5012069;28;20049;-82
2022/08/03 07:29:45;;;;;;;11.02;2.80;;;23.40;99.90;;;;;;5012529;28;20032;-83
2022/08/03 07:32:10;;;;;;;8.85;2.60;;;23.50;99.80;;;;;;5012508;28;20026;-82
2022/08/03 07:34:36;;;;;;;13.75;2.90;;;23.60;99.80;;;;;;5026113;28;20030;-83
2022/08/03 07:37:02;;;;;;;9.35;2.92;;;23.60;99.90;;;;;;5022783;23;20050;-87
2022/08/03 07:39:28;;;;;;;9.15;2.60;;;23.70;99.60;;;;;;4996500;28;20037;-87
2022/08/03 07:41:53;;;;;;;7.75;2.70;;;23.70;99.40;;;;;;4977480;28;20418;-88
2022/08/03 07:44:19;;;;;;;14.20;3.00;;;23.80;99.20;;;;;;4976661;28;20073;-88
2022/08/03 07:46:45;;;;;;;12.30;2.92;;;23.90;99.10;;;;;;5022330;28;20022;-88
2022/08/03 07:49:11;;;;;;;9.50;2.40;;;23.90;99.10;;;;;;5009281;28;20022;-89
2022/08/03 07:51:37;;;;;;;10.40;2.95;;;24.00;98.90;;;;;;5022697;28;20030;-88
2022/08/03 07:54:03;;;;;;;12.35;3.25;;;24.10;98.90;;;;;;4993294;28;20113;-88
2022/08/03 07:56:29;;;;;;;11.50;3.20;;;24.10;98.80;;;;;;4993058;28;20109;-88
2022/08/03 07:58:56;;;;;;;13.57;3.30;;;24.20;98.90;;;;;;5009460;28;20485;-87
2022/08/03 08:01:22;;;;;;;12.13;3.00;;;24.30;98.80;;;;;;4989984;28;20085;-88
2022/08/03 08:03:49;;;;;;;11.90;3.03;;;24.40;98.30;;;;;;4990595;28;20023;-88
2022/08/03 08:06:16;;;;;;;15.07;2.95;;;24.50;98.30;;;;;;5002044;28;20471;-88
2022/08/03 08:08:42;;;;;;;11.88;2.70;;;24.50;98.30;;;;;;4987384;28;20030;-88
2022/08/03 08:11:08;;;;;;;17.63;3.95;;;24.60;98.20;;;;;;5009607;28;20026;-87
2022/08/03 08:13:34;;;;;;;13.07;2.80;;;24.70;97.90;;;;;;4992749;28;20038;-88
2022/08/03 08:16:00;;;;;;;12.30;3.00;;;24.80;97.60;;;;;;5002475;28;20034;-86
2022/08/03 08:18:28;;;;;;;11.45;3.63;;;24.80;97.40;;;;;;4996982;28;20026;-88
2022/08/03 08:20:56;;;;;;;15.90;3.45;;;24.90;97.30;;;;;;4966263;28;20490;-88
2022/08/03 08:23:24;;;;;;;16.08;3.40;;;24.90;96.90;;;;;;5004045;28;20087;-88
2022/08/03 08:25:51;;;;;;;15.07;3.15;;;25.00;96.60;;;;;;5001488;28;20022;-89
2022/08/03 08:28:20;;;;;;;13.77;3.38;;;25.00;96.70;;;;;;4996377;28;20041;-87
2022/08/03 08:30:46;;;;;;;16.65;3.97;;;25.10;96.70;;;;;;5004339;28;20394;-86
2022/08/03 08:33:13;;;;;;;16.38;3.70;;;25.20;96.20;;;;;;4991077;28;20031;-86
2022/08/03 08:35:38;;;;;;;14.75;3.30;;;25.30;96.20;;;;;;4993122;28;20499;-87
2022/08/03 08:38:04;;;;;;;14.18;2.53;;;25.30;96.00;;;;;;4973519;28;20063;-87
2022/08/03 08:40:30;;;;;;;12.18;3.03;;;25.40;96.10;;;;;;4992887;28;20069;-85
2022/08/03 08:42:56;;;;;;;11.10;2.92;;;25.50;95.90;;;;;;4992833;28;20030;-86
2022/08/03 08:45:22;;;;;;;11.63;3.03;;;25.60;95.70;;;;;;5009237;28;20038;-86
2022/08/03 08:47:48;;;;;;;10.75;3.08;;;25.60;95.70;;;;;;5015814;28;20061;-86
2022/08/03 08:50:19;;;;;;;12.15;3.33;;;25.70;95.00;;;;;;5002875;28;20518;-89
2022/08/03 08:52:47;;;;;;;13.20;2.80;;;25.80;94.60;;;;;;5004186;28;20041;-88
2022/08/03 08:55:18;;;;;;;17.70;3.15;;;25.80;94.70;;;;;;5015854;28;20029;-88
2022/08/03 08:57:49;;;;;;;11.10;2.67;;;25.90;94.60;;;;;;4995904;28;20031;-88
2022/08/03 09:00:16;;;;;;;11.88;3.38;;;25.90;94.60;;;;;;4995960;28;20030;-88
2022/08/03 09:02:43;;;;;;;10.88;2.88;;;26.00;94.50;;;;;;4995982;28;20026;-88
2022/08/03 09:05:11;;;;;;;21.60;3.13;;;26.10;94.40;;;;;;4996189;28;20045;-86
2022/08/03 09:07:40;;;;;;;17.15;3.40;;;26.20;93.90;;;;;;5009271;28;20447;-87
2022/08/03 09:10:07;;;;;;;19.80;3.53;;;26.20;93.50;;;;;;4995842;28;20037;-88
2022/08/03 09:12:50;;;;;;;11.82;3.40;;;26.30;93.10;;;;;;4995368;28;20137;-87
2022/08/03 09:15:19;;;;;;;9.52;2.55;;;26.40;93.10;;;;;;5006865;28;20469;-87
2022/08/03 09:17:46;;;;;;;13.93;2.40;;;26.50;93.10;;;;;;4999661;28;20030;-88
2022/08/03 09:20:12;;;;;;;16.27;4.03;;;26.50;93.00;;;;;;4995319;28;20061;-86
2022/08/03 09:23:04;;;;;;;14.32;3.67;;;26.60;93.00;;;;;;5009330;28;20026;-87
2022/08/03 09:25:35;;;;;;;11.73;3.05;;;26.70;91.90;;;;;;5015063;28;20101;-87
2022/08/03 09:28:04;;;;;;;15.35;3.17;;;26.70;92.10;;;;;;5015395;28;20040;-87
2022/08/03 09:30:30;;;;;;;14.82;3.78;;;26.80;91.60;;;;;;5016108;28;20018;-87
2022/08/03 09:33:09;;;;;;;16.15;3.38;;;26.90;91.60;;;;;;5016970;28;20390;-88
2022/08/03 09:35:43;;;;;;;13.20;3.00;;;26.90;91.50;;;;;;5012137;28;20060;-87
2022/08/03 09:38:48;;;;;;;14.60;3.40;;;27.00;91.30;;;;;;5009269;28;20375;-88
2022/08/03 09:41:18;;;;;;;12.23;3.00;;;27.10;91.00;;;;;;4996438;28;20083;-88
2022/08/03 09:43:47;;;;;;;14.03;2.97;;;27.10;90.20;;;;;;5012066;28;20037;-91
2022/08/03 09:46:13;;;;;;;14.48;3.30;;;27.20;90.40;;;;;;5012746;28;20522;-90
2022/08/03 09:48:44;;;;;;;11.77;3.28;;;27.20;90.40;;;;;;5013007;28;20027;-91
2022/08/03 09:51:12;;;;;;;15.77;3.97;;;27.20;90.20;;;;;;4996661;28;20509;-91
2022/08/03 09:53:45;;;;;;;15.13;3.85;;;27.20;90.10;;;;;;4997410;28;20031;-92
2022/08/03 09:56:11;;;;;;;11.43;2.80;;;27.30;90.00;;;;;;5011627;28;20398;-92
2022/08/03 09:58:49;;;;;;;13.40;3.30;;;27.40;90.10;;;;;;5028395;28;20052;-91
2022/08/03 10:01:15;;;;;;;18.42;4.25;;;27.50;89.90;;;;;;5007701;28;20030;-90
2022/08/03 10:03:41;;;;;;;15.30;3.42;;;27.50;88.00;;;;;;4998259;28;20029;-92
2022/08/03 10:06:19;;;;;;;12.00;3.47;;;27.50;87.80;;;;;;5007371;28;20029;-89
2022/08/03 10:09:11;;;;;;;11.10;2.55;;;27.60;87.90;;;;;;4995423;28;20109;-89
2022/08/03 10:11:38;;;;;;;17.70;4.07;;;27.60;87.60;;;;;;4994824;28;20019;-89
2022/08/03 10:14:09;;;;;;;19.55;3.28;;;27.70;87.20;;;;;;5008626;28;20034;-88
2022/08/03 10:16:39;;;;;;;14.60;2.85;;;27.70;87.40;;;;;;4995156;28;20030;-87
2022/08/03 10:19:24;;;;;;;17.90;3.70;;;27.80;87.60;;;;;;4995209;28;20037;-91
2022/08/03 10:21:54;;;;;;;13.45;2.83;;;27.90;86.30;;;;;;5011956;28;20034;-85
2022/08/03 10:24:25;;;;;;;9.35;2.75;;;27.90;86.40;;;;;;4999815;28;20109;-80
2022/08/03 10:26:52;;;;;;;11.63;3.30;;;28.00;86.50;;;;;;5006051;28;20033;-85
2022/08/03 10:29:23;;;;;;;12.57;2.95;;;28.10;86.90;;;;;;4999849;28;20050;-86
2022/08/03 10:31:54;;;;;;;12.90;3.47;;;28.20;87.00;;;;;;5014955;28;20026;-88
2022/08/03 10:34:25;;;;;;;11.48;3.28;;;28.20;85.70;;;;;;5012382;28;20018;-88
2022/08/03 10:36:55;;;;;;;11.65;3.17;;;28.30;84.50;;;;;;5000457;28;20043;-88
2022/08/03 10:39:26;;;;;;;14.15;3.17;;;28.40;84.80;;;;;;5002008;28;20042;-87
2022/08/03 10:41:54;;;;;;;12.80;3.47;;;28.40;84.90;;;;;;4999850;28;20042;-88
2022/08/03 10:44:22;;;;;;;13.38;3.38;;;28.50;85.00;;;;;;5003106;28;20041;-86
2022/08/03 10:46:49;;;;;;;16.55;3.85;;;28.60;84.10;;;;;;4998842;28;20529;-84
2022/08/03 10:49:17;;;;;;;13.23;3.28;;;28.60;83.40;;;;;;5013419;28;20041;-80
2022/08/03 10:51:45;;;;;;;12.10;3.30;;;28.70;83.20;;;;;;5008955;28;20049;-81
2022/08/03 10:57:43;;;;;;;12.88;2.75;;;28.80;83.20;;;;;;4989868;28;20069;-89
2022/08/03 11:00:10;;;;;;;12.48;3.22;;;28.90;82.80;;;;;;5005354;28;20113;-89
2022/08/03 11:03:05;;;;;;;11.10;3.50;;;29.00;82.00;;;;;;5000862;28;20447;-92
2022/08/03 11:05:37;;;;;;;11.82;3.10;;;29.10;81.90;;;;;;5010857;28;20085;-88
2022/08/03 11:08:23;;;;;;;10.80;3.00;;;29.10;81.90;;;;;;5003399;28;20517;-90
2022/08/03 11:10:51;;;;;;;9.52;2.78;;;29.20;81.40;;;;;;4989237;28;20034;-88
2022/08/03 11:13:20;;;;;;;13.85;3.50;;;29.30;80.40;;;;;;5005341;28;20022;-88
2022/08/03 11:15:48;;;;;;;13.68;3.83;;;29.30;79.50;;;;;;4999655;28;20441;-89
2022/08/03 11:18:15;;;;;;;15.15;3.13;;;29.40;78.20;;;;;;5014982;28;20025;-89
2022/08/03 11:20:51;;;;;;;19.92;3.58;;;29.40;77.00;;;;;;4998228;28;20113;-90
2022/08/03 11:23:38;;;;;;;12.73;2.67;;;29.50;77.20;;;;;;5009424;28;20019;-90
2022/08/03 11:26:21;;;;;;;11.13;2.97;;;29.50;77.40;;;;;;5028248;28;20030;-91
2022/08/03 11:28:47;;;;;;;13.65;2.92;;;29.60;77.40;;;;;;5014335;28;20382;-91
2022/08/03 11:31:22;;;;;;;17.40;2.90;;;29.70;77.50;;;;;;5029984;28;20034;-88
2022/08/03 11:34:10;;;;;;;12.02;3.15;;;29.70;75.30;;;;;;4995540;28;20019;-93
2022/08/03 11:37:14;;;;;;;12.20;3.65;;;29.80;73.00;;;;;;4998206;28;20112;-91
2022/08/03 11:39:45;;;;;;;16.23;3.75;;;29.80;72.40;;;;;;5014588;28;20030;-91
2022/08/03 11:42:23;;;;;;;13.85;2.97;;;29.90;73.20;;;;;;4993874;28;20029;-92
2022/08/03 11:44:53;;;;;;;13.43;2.97;;;30.00;72.60;;;;;;4994552;28;20065;-93
2022/08/03 11:47:23;;;;;;;16.48;3.78;;;30.00;72.60;;;;;;4994172;28;20052;-93
2022/08/03 11:49:50;;;;;;;10.55;3.35;;;30.10;72.80;;;;;;5007471;28;20060;-94
2022/08/03 11:52:16;;;;;;;11.23;3.30;;;30.10;71.90;;;;;;5006240;28;20418;-84
2022/08/03 11:54:43;;;;;;;9.68;2.65;;;30.10;71.10;;;;;;5008385;28;20022;-86
2022/08/03 11:57:08;;;;;;;9.48;2.67;;;30.20;70.80;;;;;;4991917;28;20049;-84
2022/08/03 11:59:36;;;;;;;11.93;2.63;;;30.30;71.00;;;;;;4992132;28;20038;-84
2022/08/03 12:02:10;;;;;;;11.70;2.92;;;30.40;71.10;;;;;;4989307;28;20018;-85
2022/08/03 12:04:53;;;;;;;10.20;2.75;;;30.40;70.60;;;;;;4992064;28;20041;-85
2022/08/03 12:07:19;;;;;;;10.93;2.67;;;30.50;69.60;;;;;;4991925;28;20510;-84
2022/08/03 12:10:11;;;;;;;10.27;3.17;;;30.60;69.60;;;;;;4993101;28;20112;-85
2022/08/03 12:12:38;;;;;;;7.45;2.67;;;30.70;70.10;;;;;;4993179;28;20098;-85
2022/08/03 12:15:04;;;;;;;11.23;2.78;;;30.80;68.80;;;;;;4991851;28;20517;-85
2022/08/03 12:17:39;;;;;;;10.73;2.85;;;30.90;68.70;;;;;;4991719;28;20030;-85
2022/08/03 12:20:08;;;;;;;12.93;3.33;;;31.00;68.50;;;;;;4992555;28;20382;-85
2022/08/03 12:22:38;;;;;;;13.35;3.20;;;31.00;68.10;;;;;;4995568;28;20026;-85
2022/08/03 12:25:06;;;;;;;14.38;3.08;;;31.10;67.60;;;;;;4995269;28;20026;-84
2022/08/03 12:27:31;;;;;;;9.82;2.67;;;31.20;67.50;;;;;;4995712;28;20053;-84
2022/08/03 12:29:58;;;;;;;15.60;3.25;;;31.20;67.30;;;;;;5008866;28;20038;-85
2022/08/03 12:32:25;;;;;;;11.15;2.47;;;31.30;66.40;;;;;;5005757;28;20493;-85
2022/08/03 12:34:51;;;;;;;8.85;2.45;;;31.40;66.40;;;;;;5012109;28;20030;-84
2022/08/03 12:37:21;;;;;;;49.53;5.38;;;31.40;66.50;;;;;;5003807;28;20470;-84
2022/08/03 12:39:51;;;;;;;11.07;3.17;;;31.50;65.10;;;;;;4997912;28;20034;-85
2022/08/03 12:42:17;;;;;;;;;;;31.50;64.80;;;;;;5004120;28;20073;-84
2022/08/03 12:44:44;;;;;;;10.65;2.63;;;31.60;64.50;;;;;;4996991;28;19909;-84
2022/08/03 12:47:11;;;;;;;9.43;2.47;;;31.60;64.00;;;;;;5016261;28;20450;-84
2022/08/03 12:49:50;;;;;;;14.63;2.75;;;31.70;63.60;;;;;;4999814;28;20117;-85
2022/08/03 12:52:18;;;;;;;8.63;2.00;;;31.70;63.70;;;;;;4979542;28;20019;-85
2022/08/03 12:54:57;;;;;;;9.95;2.50;;;31.80;63.30;;;;;;4996331;28;20268;-85
2022/08/03 12:57:23;;;;;;;7.15;2.42;;;31.90;63.00;;;;;;4995260;28;20026;-85
2022/08/03 12:59:49;;;;;;;8.93;2.20;;;31.90;62.60;;;;;;4994456;28;20156;-86
2022/08/03 13:02:19;;;;;;;7.25;1.90;;;32.00;62.60;;;;;;4996222;28;20101;-85
2022/08/03 13:04:46;;;;;;;6.70;1.88;;;32.10;62.40;;;;;;4996450;28;20116;-85